Time;durP1;ratioP1;P1;durP2;ratioP2;P2;SDS_P1;SDS_P2;PMS_P1;PMS_P2;Temp;Humidity;BMP_temperature;BMP_pressure;BME280_temperature;BME280_humidity;BME280_pressure;Samples;Min_cycle;Max_cycle;Signal;HPM_P1;HPM_P2
2022/10/07 00:00:20;;;;;;;6.90;2.25;;;;;;;9.93;68.54;100095.13;5006148;28;20059;-80
2022/10/07 00:02:45;;;;;;;9.43;2.40;;;;;;;9.81;68.16;100108.31;5025754;28;20052;-80
2022/10/07 00:05:11;;;;;;;8.70;2.63;;;;;;;9.53;69.90;100112.31;5041951;28;20550;-80
2022/10/07 00:07:36;;;;;;;6.80;2.10;;;;;;;9.41;69.02;100090.03;5042380;28;20116;-80
2022/10/07 00:10:02;;;;;;;6.40;1.85;;;;;;;9.62;69.70;100098.56;5006209;28;20076;-80
2022/10/07 00:12:28;;;;;;;9.43;2.08;;;;;;;9.87;68.97;100098.66;5033792;28;20025;-80
2022/10/07 00:14:53;;;;;;;5.07;2.10;;;;;;;10.01;68.55;100096.72;5024598;28;20043;-80
2022/10/07 00:17:18;;;;;;;4.43;2.22;;;;;;;9.95;68.64;100081.56;5025181;28;20041;-80
2022/10/07 00:19:44;;;;;;;8.95;2.38;;;;;;;10.08;68.39;100092.97;5011812;28;20083;-80
2022/10/07 00:22:09;;;;;;;5.85;2.15;;;;;;;10.00;67.69;100084.41;5041308;28;20473;-80
2022/10/07 00:24:35;;;;;;;6.43;2.33;;;;;;;9.93;68.07;100078.31;5047539;28;20031;-80
2022/10/07 00:27:00;;;;;;;6.53;2.03;;;;;;;9.96;68.22;100096.56;5012795;28;20056;-80
2022/10/07 00:29:25;;;;;;;5.75;2.53;;;;;;;9.95;68.53;100084.22;5040447;28;20025;-80
2022/10/07 00:31:51;;;;;;;5.30;2.60;;;;;;;9.35;69.74;100058.91;5047778;28;20033;-80
2022/10/07 00:34:17;;;;;;;4.60;2.17;;;;;;;9.86;68.73;100077.50;5049034;28;20107;-80
2022/10/07 00:36:42;;;;;;;6.20;2.03;;;;;;;9.96;67.85;100084.00;5045733;28;20552;-80
2022/10/07 00:39:12;;;;;;;4.85;1.90;;;;;;;9.95;68.04;100076.22;5047611;28;20120;-80
2022/10/07 00:41:49;;;;;;;6.85;2.25;;;;;;;10.00;68.20;100069.25;5049486;28;21542;-80
2022/10/07 00:44:23;;;;;;;4.72;1.70;;;;;;;9.73;68.36;100075.75;5044744;28;20113;-80
2022/10/07 00:46:49;;;;;;;6.25;2.00;;;;;;;9.60;69.32;100055.31;5052972;28;20025;-80
2022/10/07 00:49:14;;;;;;;6.93;2.33;;;;;;;9.75;68.37;100042.50;5029496;28;20041;-80
2022/10/07 00:51:42;;;;;;;3.60;1.80;;;;;;;9.74;68.54;100045.41;5030548;28;20025;-80
2022/10/07 00:54:12;;;;;;;5.00;1.98;;;;;;;9.80;68.24;100044.53;5020166;28;20049;-79
2022/10/07 00:56:38;;;;;;;11.52;3.10;;;;;;;9.79;68.14;100053.56;5024601;28;20037;-80
2022/10/07 00:59:04;;;;;;;5.97;2.67;;;;;;;9.63;68.90;100040.75;5006142;28;20028;-80
2022/10/07 01:01:30;;;;;;;3.85;2.30;;;;;;;9.77;68.20;100045.78;5007554;28;20401;-80
2022/10/07 01:03:55;;;;;;;3.00;1.60;;;;;;;9.69;69.00;100039.88;5027909;28;20492;-80
2022/10/07 01:06:21;;;;;;;4.70;2.38;;;;;;;9.76;68.05;100044.13;5027997;28;20045;-80
2022/10/07 01:08:51;;;;;;;4.55;2.03;;;;;;;9.62;68.65;100033.75;5028086;28;20369;-80
2022/10/07 01:11:35;;;;;;;10.15;2.55;;;;;;;9.77;68.79;100040.44;5008773;28;20473;-80
2022/10/07 01:14:10;;;;;;;8.55;2.10;;;;;;;9.68;68.15;100035.56;5027313;28;20052;-80
2022/10/07 01:16:38;;;;;;;8.13;1.98;;;;;;;9.72;68.09;100031.44;5045894;28;20483;-80
2022/10/07 01:19:25;;;;;;;4.78;1.88;;;;;;;9.76;68.39;100025.47;5024152;28;20028;-80
2022/10/07 01:22:16;;;;;;;2.78;1.80;;;;;;;9.69;67.92;100023.88;5034648;28;20523;-80
2022/10/07 01:24:46;;;;;;;4.57;1.95;;;;;;;9.48;68.36;99986.91;5016964;28;20068;-80
2022/10/07 01:27:18;;;;;;;5.93;2.22;;;;;;;9.52;68.49;99982.78;5035522;28;20040;-80
2022/10/07 01:29:55;;;;;;;6.90;2.05;;;;;;;9.12;68.69;100002.63;5045065;28;20022;-80
2022/10/07 01:32:32;;;;;;;6.70;2.30;;;;;;;9.52;68.89;100004.88;5027724;28;20047;-80
2022/10/07 01:35:00;;;;;;;11.40;2.10;;;;;;;9.14;69.86;99995.22;5046293;28;20518;-80
2022/10/07 01:37:30;;;;;;;6.00;1.80;;;;;;;9.47;68.56;99991.41;5026564;28;20029;-80
2022/10/07 01:40:00;;;;;;;8.32;1.85;;;;;;;8.50;69.50;99982.72;5030214;28;20381;-80
2022/10/07 01:42:27;;;;;;;6.28;1.92;;;;;;;9.03;70.18;100004.69;5026094;28;20025;-80
2022/10/07 01:44:56;;;;;;;3.47;2.08;;;;;;;9.13;69.30;99978.44;5030862;28;20939;-79
2022/10/07 01:47:24;;;;;;;7.40;1.60;;;;;;;9.32;69.54;99996.19;5048166;28;20985;-80
2022/10/07 01:49:49;;;;;;;5.28;1.85;;;;;;;9.45;68.75;99987.31;5029644;28;20033;-80
2022/10/07 01:52:36;;;;;;;4.78;1.92;;;;;;;9.39;69.42;99988.97;5029995;28;20028;-79
2022/10/07 01:55:20;;;;;;;;;;;;;;;8.85;68.89;99988.56;5030483;28;20037;-80
2022/10/07 01:58:05;;;;;;;9.75;1.50;;;;;;;9.30;69.10;99984.94;5042432;28;19928;-80
2022/10/07 02:00:37;;;;;;;5.20;1.92;;;;;;;8.07;71.15;99961.03;5026004;28;20566;-80
2022/10/07 02:03:08;;;;;;;6.75;3.30;;;;;;;9.01;70.22;99980.13;5029825;28;20036;-80
2022/10/07 02:05:44;;;;;;;9.35;2.30;;;;;;;9.32;68.51;99976.72;5047012;28;20090;-80
2022/10/07 02:08:50;;;;;;;3.50;1.90;;;;;;;9.20;69.67;99979.22;5049535;28;20464;-80
2022/10/07 02:11:26;;;;;;;6.55;2.45;;;;;;;9.35;68.27;99968.31;4964393;28;20043;-80
2022/10/07 02:14:13;;;;;;;5.55;1.90;;;;;;;9.40;68.34;99965.81;4962708;28;20495;-80
2022/10/07 02:16:43;;;;;;;3.17;1.83;;;;;;;9.33;68.31;99962.34;4984546;28;20052;-80
2022/10/07 02:19:22;;;;;;;3.53;2.03;;;;;;;9.24;68.25;99943.13;5045879;28;20033;-80
2022/10/07 02:21:51;;;;;;;8.23;2.05;;;;;;;9.13;69.20;99953.66;5019708;28;20197;-80
2022/10/07 02:24:20;;;;;;;6.93;2.08;;;;;;;9.15;68.70;99938.28;5036406;28;20025;-80
2022/10/07 02:26:47;;;;;;;4.40;2.08;;;;;;;9.24;68.06;99942.34;5034503;28;20036;-80
2022/10/07 02:29:15;;;;;;;6.18;1.63;;;;;;;8.98;68.94;99952.06;5045617;28;20034;-80
2022/10/07 02:31:43;;;;;;;7.25;1.98;;;;;;;7.64;71.25;99927.91;5028043;28;20482;-79
2022/10/07 02:34:12;;;;;;;7.55;1.95;;;;;;;8.72;70.63;99938.84;5032747;28;20105;-80
2022/10/07 02:36:43;;;;;;;8.93;2.33;;;;;;;7.35;73.33;99952.97;5016100;28;20033;-80
2022/10/07 02:39:11;;;;;;;3.15;2.00;;;;;;;8.51;70.80;99925.81;5046316;28;20025;-80
2022/10/07 02:42:02;;;;;;;7.18;2.15;;;;;;;9.01;69.62;99946.34;5037310;28;20029;-80
2022/10/07 02:44:35;;;;;;;6.22;1.63;;;;;;;8.79;68.75;99901.56;5044227;28;20029;-80
2022/10/07 02:47:07;;;;;;;4.20;1.73;;;;;;;8.92;68.66;99907.66;5051205;28;20086;-80
2022/10/07 02:49:38;;;;;;;6.57;2.17;;;;;;;9.17;68.94;99938.91;5018737;28;20025;-80
2022/10/07 02:52:08;;;;;;;6.82;1.83;;;;;;;9.05;69.12;99922.75;5024713;28;20056;-79
2022/10/07 02:54:40;;;;;;;6.75;1.98;;;;;;;9.06;68.97;99941.19;5038409;28;20731;-80
2022/10/07 02:57:07;;;;;;;4.28;1.60;;;;;;;9.01;69.29;99933.03;5042720;28;20628;-80
2022/10/07 02:59:36;;;;;;;4.03;2.13;;;;;;;9.04;69.43;99940.56;5026106;28;20036;-80
2022/10/07 03:02:04;;;;;;;2.65;1.85;;;;;;;8.99;68.62;99908.47;5038667;28;20059;-80
2022/10/07 03:04:29;;;;;;;4.18;1.70;;;;;;;9.04;68.58;99905.94;5026319;28;20029;-80
2022/10/07 03:06:57;;;;;;;1.88;1.67;;;;;;;8.99;68.58;99919.09;5025078;28;20040;-80
2022/10/07 03:09:24;;;;;;;3.83;2.05;;;;;;;8.93;68.73;99927.91;5007445;28;20110;-80
2022/10/07 03:11:49;;;;;;;7.75;2.28;;;;;;;8.87;68.93;99894.16;5042267;28;20052;-80
2022/10/07 03:14:15;;;;;;;5.38;1.83;;;;;;;9.04;68.77;99926.47;4994876;28;20064;-80
2022/10/07 03:16:40;;;;;;;4.75;2.00;;;;;;;9.01;69.62;99919.72;5025146;28;20040;-80
2022/10/07 03:19:05;;;;;;;4.57;1.77;;;;;;;9.02;69.19;99916.00;5026568;28;20029;-80
2022/10/07 03:21:32;;;;;;;3.80;1.90;;;;;;;8.85;69.09;99893.56;5040004;28;20538;-80
2022/10/07 03:24:03;;;;;;;4.65;1.85;;;;;;;8.85;68.93;99901.53;5042372;28;20503;-80
2022/10/07 03:26:30;;;;;;;3.30;2.00;;;;;;;9.00;68.48;99915.41;5044883;28;20028;-80
2022/10/07 03:28:55;;;;;;;7.70;1.67;;;;;;;9.01;68.62;99913.56;5048174;28;20075;-80
2022/10/07 03:31:20;;;;;;;6.07;1.90;;;;;;;8.34;71.31;99908.69;5044434;28;20143;-80
2022/10/07 03:33:46;;;;;;;6.13;1.73;;;;;;;8.83;69.51;99919.56;5009769;28;20041;-80
2022/10/07 03:36:12;;;;;;;2.47;1.65;;;;;;;8.93;69.37;99913.81;5028433;28;20039;-80
2022/10/07 03:38:37;;;;;;;6.43;2.08;;;;;;;8.94;68.96;99910.09;5022063;28;20069;-80
2022/10/07 03:41:05;;;;;;;6.70;2.08;;;;;;;7.90;70.78;99911.97;5029400;28;20057;-80
2022/10/07 03:43:32;;;;;;;3.13;1.80;;;;;;;8.62;69.84;99895.91;5027798;28;20033;-80
2022/10/07 03:46:01;;;;;;;8.10;2.67;;;;;;;7.18;72.92;99919.03;5010381;28;20033;-80
2022/10/07 03:48:27;;;;;;;4.20;1.83;;;;;;;8.34;70.60;99906.03;5012169;28;20032;-80
2022/10/07 03:50:56;;;;;;;8.07;2.13;;;;;;;8.68;69.56;99919.03;5028973;28;20033;-80
2022/10/07 03:53:23;;;;;;;2.80;1.95;;;;;;;8.67;69.30;99893.41;5025812;28;20102;-80
2022/10/07 03:55:48;;;;;;;5.30;2.03;;;;;;;8.60;68.94;99887.31;5046044;28;20029;-80
2022/10/07 03:58:14;;;;;;;3.05;1.80;;;;;;;8.65;69.32;99887.50;5044387;28;20321;-80
2022/10/07 04:00:40;;;;;;;3.85;1.80;;;;;;;8.69;69.28;99875.38;5011425;28;20044;-80
2022/10/07 04:03:06;;;;;;;8.18;1.88;;;;;;;8.61;68.79;99865.00;5024329;28;20385;-78
2022/10/07 04:05:34;;;;;;;4.90;1.92;;;;;;;8.85;68.81;99896.22;5044774;28;20032;-77
2022/10/07 04:07:59;;;;;;;7.65;1.70;;;;;;;8.71;68.65;99876.03;5031003;28;20146;-77
2022/10/07 04:10:28;;;;;;;5.63;1.63;;;;;;;8.81;68.54;99895.00;5065153;28;20049;-77
2022/10/07 04:12:57;;;;;;;6.13;1.60;;;;;;;8.69;68.50;99886.03;5028427;28;20056;-77
2022/10/07 04:15:22;;;;;;;4.85;2.38;;;;;;;8.77;68.79;99882.34;5027184;28;20037;-78
2022/10/07 04:17:48;;;;;;;4.72;1.75;;;;;;;8.73;68.54;99891.78;5046029;28;20041;-77
2022/10/07 04:20:15;;;;;;;6.70;2.75;;;;;;;7.96;69.79;99875.75;5060720;28;20024;-77
2022/10/07 04:22:41;;;;;;;6.80;2.50;;;;;;;8.60;68.46;99879.34;5044817;28;20041;-78
2022/10/07 04:27:56;;;;;;;5.57;1.80;;;;;;;8.54;69.24;99874.84;5045697;28;20043;-78
2022/10/07 04:30:23;;;;;;;6.40;2.10;;;;;;;8.66;69.11;99878.50;5024712;28;20040;-78
2022/10/07 04:32:49;;;;;;;4.78;2.35;;;;;;;8.63;69.03;99873.56;5044399;28;20112;-77
2022/10/07 04:35:16;;;;;;;4.63;1.83;;;;;;;8.44;68.39;99861.16;5057654;28;20033;-77
2022/10/07 04:37:42;;;;;;;6.82;2.22;;;;;;;7.66;71.98;99871.91;5012391;28;20037;-76
2022/10/07 04:40:09;;;;;;;4.82;2.00;;;;;;;8.27;69.45;99858.16;5029147;28;20036;-79
2022/10/07 04:45:19;;;;;;;2.30;1.77;;;;;;;8.30;69.23;99846.25;5050707;28;20776;-78
2022/10/07 04:47:45;;;;;;;8.80;1.70;;;;;;;8.57;68.81;99873.59;5018864;28;20028;-78
2022/10/07 04:50:11;;;;;;;6.13;2.25;;;;;;;8.12;70.08;99862.03;5030501;28;20036;-78
2022/10/07 04:52:41;;;;;;;6.82;2.42;;;;;;;8.39;68.90;99846.88;5059573;28;20021;-78
2022/10/07 04:55:07;;;;;;;2.97;2.35;;;;;;;8.56;68.79;99871.97;5046618;28;20341;-78
2022/10/07 04:57:33;;;;;;;2.25;1.60;;;;;;;8.30;69.06;99838.28;5046710;28;20025;-79
2022/10/07 04:59:58;;;;;;;5.93;2.00;;;;;;;8.41;68.64;99831.53;5046093;28;20041;-78
2022/10/07 05:02:23;;;;;;;8.30;1.70;;;;;;;8.38;68.61;99853.22;5062650;28;20033;-78
2022/10/07 05:04:49;;;;;;;5.63;1.92;;;;;;;8.29;68.77;99864.09;5032288;28;20035;-78
2022/10/07 05:07:17;;;;;;;5.90;1.80;;;;;;;8.48;68.53;99856.22;5019600;28;20046;-78
2022/10/07 05:09:42;;;;;;;4.65;2.30;;;;;;;8.35;69.03;99838.47;5038062;28;20473;-78
2022/10/07 05:12:08;;;;;;;2.95;1.58;;;;;;;8.32;68.66;99827.47;5011708;28;20025;-79
2022/10/07 05:14:33;;;;;;;7.55;1.92;;;;;;;8.49;68.45;99842.75;5059312;28;20043;-78
2022/10/07 05:16:58;;;;;;;5.55;2.13;;;;;;;8.32;68.35;99828.28;5045063;28;20040;-78
2022/10/07 05:19:24;;;;;;;7.57;1.95;;;;;;;8.49;68.74;99844.56;5009156;28;20563;-78
2022/10/07 05:21:50;;;;;;;6.57;2.05;;;;;;;8.36;68.19;99832.16;5031549;28;20025;-79
2022/10/07 05:24:15;;;;;;;4.97;2.00;;;;;;;8.37;68.85;99838.25;5032738;28;20048;-78
2022/10/07 05:26:42;;;;;;;3.20;1.85;;;;;;;8.26;68.74;99827.25;5046599;28;20036;-78
2022/10/07 05:29:08;;;;;;;5.70;2.00;;;;;;;8.16;69.47;99842.00;5032593;28;20025;-78
2022/10/07 05:31:34;;;;;;;4.93;1.88;;;;;;;8.20;68.63;99808.63;5050896;28;20020;-78
2022/10/07 05:33:59;;;;;;;4.97;2.50;;;;;;;8.24;68.93;99829.28;5030452;28;20036;-78
2022/10/07 05:36:25;;;;;;;5.80;2.45;;;;;;;8.32;69.04;99835.44;5028362;28;20481;-78
2022/10/07 05:38:57;;;;;;;7.05;2.78;;;;;;;8.17;68.87;99828.47;5016547;28;20028;-78
2022/10/07 05:41:23;;;;;;;3.10;1.73;;;;;;;8.24;68.77;99831.94;5037545;28;20037;-78
2022/10/07 05:43:49;;;;;;;5.10;1.80;;;;;;;8.24;68.62;99825.78;5042748;28;20036;-78
2022/10/07 05:46:17;;;;;;;3.28;1.52;;;;;;;8.36;68.63;99848.09;5034154;28;20060;-78
2022/10/07 05:48:47;;;;;;;11.05;3.10;;;;;;;8.31;69.01;99829.28;5053426;28;20025;-78
2022/10/07 05:51:13;;;;;;;10.48;2.15;;;;;;;8.27;69.08;99822.75;5027307;28;20032;-78
2022/10/07 05:53:41;;;;;;;2.58;1.67;;;;;;;8.38;68.70;99835.41;5060258;28;20027;-78
2022/10/07 05:56:09;;;;;;;4.07;1.75;;;;;;;8.40;68.46;99832.53;5042691;28;20036;-79
2022/10/07 05:58:35;;;;;;;5.22;2.53;;;;;;;8.39;69.11;99828.25;5047569;28;20033;-78
2022/10/07 06:01:02;;;;;;;3.38;1.60;;;;;;;8.41;68.56;99824.34;5041715;28;20066;-78
2022/10/07 06:03:28;;;;;;;4.55;2.78;;;;;;;8.11;68.42;99778.81;5025738;28;20080;-78
2022/10/07 06:05:54;;;;;;;6.80;1.70;;;;;;;8.17;68.85;99788.59;5020770;28;20037;-78
2022/10/07 06:08:22;;;;;;;4.65;1.58;;;;;;;8.34;69.15;99828.88;5000761;28;20047;-78
2022/10/07 06:13:33;;;;;;;5.68;1.75;;;;;;;8.21;69.55;99791.66;5046810;28;20076;-78
2022/10/07 06:16:02;;;;;;;3.30;1.48;;;;;;;8.36;68.90;99813.53;5037447;28;20119;-78
2022/10/07 06:18:28;;;;;;;5.82;3.33;;;;;;;8.30;69.46;99793.06;5021712;28;20900;-78
2022/10/07 06:20:55;;;;;;;2.78;2.28;;;;;;;8.32;69.50;99798.19;5022583;28;20029;-79
2022/10/07 06:23:21;;;;;;;5.63;2.00;;;;;;;8.41;69.26;99807.59;5020062;28;20029;-78
2022/10/07 06:26:04;;;;;;;6.90;2.00;;;;;;;8.45;69.54;99798.16;5022309;28;20039;-78
2022/10/07 06:28:32;;;;;;;5.13;1.90;;;;;;;8.26;69.40;99805.16;5022455;28;20032;-78
2022/10/07 06:30:57;;;;;;;4.45;1.92;;;;;;;8.24;70.23;99805.34;5022265;28;20553;-78
2022/10/07 06:33:23;;;;;;;3.97;2.05;;;;;;;8.36;70.00;99788.75;5049801;28;20103;-79
2022/10/07 06:35:48;;;;;;;4.22;1.70;;;;;;;8.45;69.49;99798.97;5023572;28;20025;-79
2022/10/07 06:38:13;;;;;;;10.48;2.45;;;;;;;8.58;69.65;99817.53;5048580;28;20392;-79
2022/10/07 06:40:39;;;;;;;6.07;2.25;;;;;;;8.50;69.75;99807.13;5042497;28;20036;-79
2022/10/07 06:43:04;;;;;;;4.63;2.45;;;;;;;8.64;69.84;99815.84;5033593;28;20112;-79
2022/10/07 06:45:31;;;;;;;7.13;2.60;;;;;;;8.53;70.11;99809.38;5052692;28;20036;-79
2022/10/07 06:47:57;;;;;;;6.53;2.40;;;;;;;8.62;70.71;99829.38;5034633;28;20029;-79
2022/10/07 06:50:23;;;;;;;7.88;2.63;;;;;;;8.56;70.54;99813.44;5034083;28;20044;-78
2022/10/07 06:52:48;;;;;;;7.15;2.78;;;;;;;8.60;70.54;99823.47;5050097;28;20105;-79
2022/10/07 06:55:14;;;;;;;4.13;2.30;;;;;;;8.49;71.08;99808.16;5019569;28;20094;-80
2022/10/07 06:57:40;;;;;;;7.70;2.95;;;;;;;8.68;70.70;99809.91;5041298;28;20033;-79
2022/10/07 07:00:06;;;;;;;6.15;2.42;;;;;;;8.44;70.64;99809.78;4998916;28;20095;-79
2022/10/07 07:02:32;;;;;;;18.45;4.53;;;;;;;8.69;70.61;99814.19;5032166;28;20032;-79
2022/10/07 07:04:57;;;;;;;4.72;2.63;;;;;;;8.18;72.20;99808.84;5019027;28;20546;-79
2022/10/07 07:07:23;;;;;;;6.00;2.85;;;;;;;8.60;70.98;99801.34;5020102;28;20401;-79
2022/10/07 07:09:50;;;;;;;7.38;2.83;;;;;;;8.84;70.58;99822.72;5023251;28;20408;-78
2022/10/07 07:12:15;;;;;;;9.82;2.92;;;;;;;8.60;70.56;99785.38;5035896;28;20025;-79
2022/10/07 07:14:43;;;;;;;8.63;2.83;;;;;;;8.83;70.14;99798.97;5023520;28;20059;-79
2022/10/07 07:17:09;;;;;;;7.45;2.75;;;;;;;8.97;70.48;99820.00;5014639;28;20488;-79
2022/10/07 07:19:35;;;;;;;5.53;2.47;;;;;;;8.88;70.15;99781.34;5036811;28;20052;-79
2022/10/07 07:22:00;;;;;;;7.15;3.20;;;;;;;9.03;70.30;99802.31;5019132;28;20425;-79
2022/10/07 07:24:26;;;;;;;19.95;5.30;;;;;;;8.27;75.23;99812.13;5001897;28;20044;-79
2022/10/07 07:26:51;;;;;;;9.40;3.55;;;;;;;7.88;75.44;99788.28;5003630;28;20041;-79
2022/10/07 07:29:16;;;;;;;6.00;3.22;;;;;;;8.62;72.27;99805.44;5035297;28;20071;-79
2022/10/07 07:31:43;;;;;;;6.18;3.03;;;;;;;8.70;71.99;99794.53;4984121;28;20029;-79
2022/10/07 07:34:10;;;;;;;8.77;3.97;;;;;;;8.80;73.35;99818.84;5004452;28;20037;-79
2022/10/07 07:36:37;;;;;;;21.08;5.47;;;;;;;7.91;78.53;99806.44;5034978;28;20571;-79
2022/10/07 07:39:09;;;;;;;6.45;3.00;;;;;;;8.96;72.21;99814.84;5039790;28;20063;-79
2022/10/07 07:41:37;;;;;;;5.20;3.15;;;;;;;8.78;72.36;99807.59;5017146;28;20044;-79
2022/10/07 07:44:05;;;;;;;9.13;3.90;;;;;;;8.88;72.95;99812.47;5037829;28;20029;-79
2022/10/07 07:46:38;;;;;;;6.15;3.53;;;;;;;8.57;75.12;99818.56;5037414;28;20025;-79
2022/10/07 07:49:05;;;;;;;6.57;3.50;;;;;;;8.69;74.65;99818.72;5036082;28;20171;-79
2022/10/07 07:51:32;;;;;;;13.20;4.03;;;;;;;8.76;73.02;99793.69;5019939;28;20107;-79
2022/10/07 07:53:59;;;;;;;6.30;3.60;;;;;;;8.94;72.49;99796.44;5018241;28;20063;-78
2022/10/07 07:56:28;;;;;;;5.65;2.55;;;;;;;9.25;72.38;99805.44;5037017;28;20040;-79
2022/10/07 07:58:55;;;;;;;4.80;2.78;;;;;;;9.16;72.00;99801.41;5039554;28;20025;-79
2022/10/07 08:01:20;;;;;;;8.82;3.47;;;;;;;9.05;72.99;99779.78;5021930;28;20036;-79
2022/10/07 08:03:46;;;;;;;9.05;3.25;;;;;;;9.24;72.07;99772.66;4986182;28;20041;-79
2022/10/07 08:06:13;;;;;;;5.97;3.10;;;;;;;8.89;74.64;99790.13;5021059;28;20031;-79
2022/10/07 08:08:42;;;;;;;10.70;4.55;;;;;;;8.69;78.32;99797.41;5017979;28;20029;-79
2022/10/07 08:11:09;;;;;;;13.23;5.10;;;;;;;8.21;82.03;99773.84;5041971;28;20029;-78
2022/10/07 08:13:35;;;;;;;7.35;4.22;;;;;;;8.61;78.81;99792.31;5024617;28;20517;-79
2022/10/07 08:16:03;;;;;;;6.60;3.92;;;;;;;8.37;82.40;99790.38;5037448;28;20506;-79
2022/10/07 08:18:32;;;;;;;12.32;4.40;;;;;;;8.39;80.36;99767.88;5034321;28;20039;-79
2022/10/07 08:21:00;;;;;;;11.07;4.50;;;;;;;8.85;78.01;99768.44;5018028;28;20714;-79
2022/10/07 08:23:28;;;;;;;7.68;3.83;;;;;;;8.54;80.36;99765.75;5003831;28;20132;-78
2022/10/07 08:25:55;;;;;;;8.05;2.92;;;;;;;8.87;75.60;99758.38;5005314;28;20036;-79
2022/10/07 08:28:22;;;;;;;5.68;2.58;;;;;;;9.20;73.96;99754.66;5032916;28;20485;-78
2022/10/07 08:30:49;;;;;;;10.13;3.47;;;;;;;8.77;77.61;99746.59;5037296;28;20033;-79
2022/10/07 08:33:15;;;;;;;8.30;3.40;;;;;;;9.03;76.37;99755.22;5003608;28;20029;-79
2022/10/07 08:35:41;;;;;;;17.85;3.95;;;;;;;8.85;81.22;99752.47;5004567;28;20035;-79
2022/10/07 08:38:06;;;;;;;12.93;3.55;;;;;;;9.22;75.93;99760.63;5022404;28;20025;-79
2022/10/07 08:40:31;;;;;;;6.72;2.58;;;;;;;9.39;73.34;99740.38;5025157;28;20064;-79
2022/10/07 08:42:58;;;;;;;4.43;3.00;;;;;;;9.44;75.06;99756.50;5037708;28;20078;-79
2022/10/07 08:45:30;;;;;;;10.13;3.40;;;;;;;9.38;75.54;99750.22;5022774;28;20056;-79
2022/10/07 08:48:01;;;;;;;5.55;2.55;;;;;;;9.42;74.08;99737.25;5019288;28;20044;-79
2022/10/07 08:50:50;;;;;;;20.40;4.75;;;;;;;9.00;84.42;99744.97;5030223;28;20041;-79
2022/10/07 08:53:21;;;;;;;17.38;5.13;;;;;;;8.91;84.33;99732.97;5002175;28;20132;-78
2022/10/07 08:56:00;;;;;;;12.57;4.93;;;;;;;8.73;86.64;99702.81;5043929;28;20082;-78
2022/10/07 08:58:29;;;;;;;8.18;3.58;;;;;;;9.16;81.67;99742.81;5040691;28;20065;-79
2022/10/07 09:01:14;;;;;;;8.98;4.00;;;;;;;9.40;81.34;99728.69;5042589;28;20444;-79
2022/10/07 09:03:39;;;;;;;15.43;3.80;;;;;;;9.65;76.95;99732.13;5023530;28;20040;-79
2022/10/07 09:06:12;;;;;;;9.63;3.55;;;;;;;9.69;76.61;99722.66;5023306;28;20033;-79
2022/10/07 09:08:42;;;;;;;18.35;4.25;;;;;;;9.53;81.88;99713.38;5040741;28;20028;-78
2022/10/07 09:11:15;;;;;;;9.50;3.20;;;;;;;9.93;77.74;99729.78;5005760;28;20136;-79
2022/10/07 09:13:51;;;;;;;12.88;2.70;;;;;;;10.05;78.77;99719.16;5023742;28;20629;-79
2022/10/07 09:16:22;;;;;;;11.43;2.97;;;;;;;10.26;78.84;99714.22;5021526;28;20033;-79
2022/10/07 09:18:52;;;;;;;8.82;2.97;;;;;;;10.21;79.25;99700.75;5025930;28;20131;-79
2022/10/07 09:21:43;;;;;;;16.00;4.32;;;;;;;10.19;80.65;99708.16;5021012;28;20028;-79
2022/10/07 09:24:20;;;;;;;9.32;3.22;;;;;;;10.61;78.81;99711.69;5019635;28;20484;-79
2022/10/07 09:26:46;;;;;;;13.10;2.83;;;;;;;10.70;78.19;99709.50;5041002;28;20029;-79
2022/10/07 09:29:12;;;;;;;13.65;3.30;;;;;;;10.76;77.97;99696.06;5041460;28;20131;-79
2022/10/07 09:31:38;;;;;;;10.25;2.92;;;;;;;10.77;77.97;99672.84;5040425;28;20041;-79
2022/10/07 09:34:05;;;;;;;9.25;3.13;;;;;;;10.99;78.16;99690.75;5041412;28;20123;-79
2022/10/07 09:36:30;;;;;;;10.25;2.50;;;;;;;10.99;77.25;99685.41;5023696;28;20155;-79
2022/10/07 09:39:14;;;;;;;8.25;2.70;;;;;;;11.44;75.75;99687.53;5041924;28;20028;-79
2022/10/07 09:41:40;;;;;;;7.47;3.13;;;;;;;11.45;76.35;99687.28;5025650;28;20074;-79
2022/10/07 09:44:24;;;;;;;14.57;3.33;;;;;;;11.46;76.02;99669.41;5036894;28;20097;-79
2022/10/07 09:46:56;;;;;;;11.77;2.75;;;;;;;11.57;75.55;99674.75;5029018;28;20028;-79
2022/10/07 09:49:27;;;;;;;13.70;4.05;;;;;;;11.59;76.19;99678.00;5022993;28;20947;-79
2022/10/07 09:52:19;;;;;;;9.30;2.80;;;;;;;11.61;76.36;99681.25;5021262;28;20555;-79
2022/10/07 09:54:47;;;;;;;7.75;2.50;;;;;;;11.68;76.11;99676.63;5044250;28;20103;-78
2022/10/07 09:57:26;;;;;;;8.75;2.92;;;;;;;11.82;75.55;99671.81;5039933;28;20505;-79
2022/10/07 10:00:11;;;;;;;8.93;4.15;;;;;;;11.94;75.35;99664.56;5023416;28;20032;-79
2022/10/07 10:02:39;;;;;;;12.15;3.05;;;;;;;12.25;73.45;99644.56;5025289;28;20047;-79
2022/10/07 10:05:05;;;;;;;10.00;2.70;;;;;;;12.41;73.55;99663.34;5007326;28;20067;-79
2022/10/07 10:07:36;;;;;;;9.65;2.80;;;;;;;12.44;72.85;99649.47;5024439;28;20037;-79
2022/10/07 10:10:16;;;;;;;12.70;3.25;;;;;;;12.01;74.00;99644.66;5028112;28;20030;-79
2022/10/07 10:12:49;;;;;;;8.00;2.47;;;;;;;12.40;71.67;99664.41;5054924;28;20576;-79
2022/10/07 10:15:22;;;;;;;12.18;2.28;;;;;;;12.59;71.07;99647.06;5025718;28;20037;-79
2022/10/07 10:17:48;;;;;;;10.40;2.55;;;;;;;12.55;70.85;99634.41;5038774;28;20029;-79
2022/10/07 10:20:23;;;;;;;11.82;2.88;;;;;;;12.33;71.81;99645.00;5036287;28;20532;-79
2022/10/07 10:22:50;;;;;;;7.75;1.95;;;;;;;12.29;71.19;99637.69;5058096;28;20111;-79
2022/10/07 10:28:38;;;;;;;7.03;2.03;;;;;;;12.18;71.72;99631.34;5041639;28;20036;-79
2022/10/07 10:31:34;;;;;;;9.10;2.10;;;;;;;12.14;71.20;99630.19;5039807;28;20029;-79
2022/10/07 10:34:41;;;;;;;9.45;2.35;;;;;;;11.89;72.14;99602.94;4999616;28;20052;-79
2022/10/07 10:37:34;;;;;;;4.07;1.70;;;;;;;12.01;71.64;99625.91;5037905;28;20095;-79
2022/10/07 10:40:25;;;;;;;9.82;2.50;;;;;;;11.95;70.60;99608.16;5020866;28;20464;-79
2022/10/07 10:43:23;;;;;;;4.53;1.83;;;;;;;12.06;71.14;99613.72;5040529;28;20036;-79
2022/10/07 10:46:17;;;;;;;3.55;1.67;;;;;;;12.07;71.34;99610.78;5037880;28;20116;-79
2022/10/07 10:48:58;;;;;;;8.77;2.60;;;;;;;12.04;71.05;99592.53;5016131;28;20503;-78
2022/10/07 10:51:54;;;;;;;5.20;1.77;;;;;;;12.10;70.76;99602.25;5006876;28;20063;-79
2022/10/07 10:55:09;;;;;;;3.80;1.83;;;;;;;12.24;70.44;99590.22;4969725;28;20035;-78
2022/10/07 10:57:44;;;;;;;13.73;2.92;;;;;;;12.26;70.21;99598.00;5021070;28;20051;-78
2022/10/07 11:00:14;;;;;;;5.95;1.65;;;;;;;12.27;70.28;99586.25;5038295;28;20083;-78
2022/10/07 11:02:58;;;;;;;9.88;2.45;;;;;;;12.37;70.18;99597.13;5037014;28;20029;-79
2022/10/07 11:05:39;;;;;;;8.98;2.70;;;;;;;12.30;70.19;99575.88;5037518;28;20032;-79
2022/10/07 11:08:16;;;;;;;5.85;1.95;;;;;;;12.37;69.67;99584.56;5021001;28;20485;-79
2022/10/07 11:10:54;;;;;;;5.00;1.60;;;;;;;12.49;69.26;99587.97;5037303;28;20074;-79
2022/10/07 11:13:39;;;;;;;7.00;2.00;;;;;;;12.54;69.20;99576.53;5035534;28;20017;-79
2022/10/07 11:16:23;;;;;;;6.05;1.98;;;;;;;12.59;69.35;99563.22;5020237;28;20557;-78
2022/10/07 11:19:10;;;;;;;8.10;2.10;;;;;;;12.70;68.79;99562.34;5029255;28;20029;-78
2022/10/07 11:21:47;;;;;;;5.80;1.88;;;;;;;12.69;68.29;99555.34;5017799;28;20059;-78
2022/10/07 11:24:22;;;;;;;7.63;2.22;;;;;;;12.72;68.59;99554.88;5037099;28;20472;-78
2022/10/07 11:26:59;;;;;;;4.15;1.58;;;;;;;12.81;67.80;99537.31;5038055;28;20060;-78
2022/10/07 11:29:34;;;;;;;6.38;2.13;;;;;;;12.89;67.87;99533.44;5018843;28;20496;-78
2022/10/07 11:32:23;;;;;;;6.28;2.20;;;;;;;13.01;67.68;99534.13;5020007;28;20052;-78
2022/10/07 11:35:12;;;;;;;5.65;1.80;;;;;;;13.10;67.35;99532.69;5037964;28;20044;-78
2022/10/07 11:37:58;;;;;;;7.53;1.88;;;;;;;13.02;67.23;99500.94;5037505;28;20551;-78
2022/10/07 11:40:28;;;;;;;7.10;1.63;;;;;;;13.27;67.04;99510.13;5020547;28;20059;-79
2022/10/07 11:42:56;;;;;;;8.48;1.73;;;;;;;13.33;66.68;99495.72;5017197;28;20282;-79
2022/10/07 11:45:36;;;;;;;8.68;2.35;;;;;;;13.28;66.49;99487.59;4999709;28;20049;-78
2022/10/07 11:48:09;;;;;;;3.80;1.60;;;;;;;13.54;66.39;99494.88;5003592;28;20068;-79
2022/10/07 11:50:50;;;;;;;10.65;2.45;;;;;;;13.60;65.58;99462.75;5019494;28;20025;-78
2022/10/07 11:53:24;;;;;;;7.90;2.15;;;;;;;13.75;65.94;99487.88;5036409;28;20026;-79
2022/10/07 11:56:00;;;;;;;3.90;2.05;;;;;;;13.88;65.57;99473.22;5020305;28;21796;-78
2022/10/07 11:58:37;;;;;;;10.45;2.03;;;;;;;14.10;64.97;99468.59;5012263;28;20031;-79
2022/10/07 12:01:24;;;;;;;9.20;2.28;;;;;;;14.19;65.28;99470.56;5012342;28;20508;-79
2022/10/07 12:04:21;;;;;;;7.55;2.40;;;;;;;14.22;64.52;99475.41;5013891;28;20044;-78